sensor_id;sensor_type;location;lat;lon;timestamp;P1;durP1;ratioP1;P2;durP2;ratioP2
10450;SDS011;5273;51.290;6.918;2024-03-08T00:00:04;18.60;;;13.67;;
10450;SDS011;5273;51.290;6.918;2024-03-08T00:02:37;23.03;;;13.93;;
10450;SDS011;5273;51.290;6.918;2024-03-08T00:05:04;19.07;;;12.90;;
10450;SDS011;5273;51.290;6.918;2024-03-08T00:07:33;18.00;;;13.30;;
10450;SDS011;5273;51.290;6.918;2024-03-08T00:10:02;19.13;;;12.83;;
10450;SDS011;5273;51.290;6.918;2024-03-08T00:12:29;20.43;;;13.63;;
10450;SDS011;5273;51.290;6.918;2024-03-08T00:14:57;17.93;;;11.80;;
10450;SDS011;5273;51.290;6.918;2024-03-08T00:17:24;18.97;;;12.73;;
10450;SDS011;5273;51.290;6.918;2024-03-08T00:19:52;23.83;;;14.30;;
10450;SDS011;5273;51.290;6.918;2024-03-08T00:22:19;21.87;;;14.83;;
10450;SDS011;5273;51.290;6.918;2024-03-08T00:24:47;21.60;;;13.87;;
10450;SDS011;5273;51.290;6.918;2024-03-08T00:27:17;20.17;;;12.77;;
10450;SDS011;5273;51.290;6.918;2024-03-08T00:29:45;20.47;;;13.43;;
10450;SDS011;5273;51.290;6.918;2024-03-08T00:32:13;23.20;;;13.87;;
10450;SDS011;5273;51.290;6.918;2024-03-08T00:34:40;23.80;;;13.40;;
10450;SDS011;5273;51.290;6.918;2024-03-08T00:37:07;24.20;;;15.07;;
10450;SDS011;5273;51.290;6.918;2024-03-08T00:39:35;21.70;;;13.93;;
10450;SDS011;5273;51.290;6.918;2024-03-08T00:42:02;22.57;;;13.27;;
10450;SDS011;5273;51.290;6.918;2024-03-08T00:44:30;19.83;;;13.27;;
10450;SDS011;5273;51.290;6.918;2024-03-08T00:46:57;25.93;;;15.47;;
10450;SDS011;5273;51.290;6.918;2024-03-08T00:49:24;22.63;;;13.40;;
10450;SDS011;5273;51.290;6.918;2024-03-08T00:51:51;21.60;;;13.80;;
10450;SDS011;5273;51.290;6.918;2024-03-08T00:54:18;21.33;;;13.47;;
10450;SDS011;5273;51.290;6.918;2024-03-08T00:56:45;19.63;;;12.10;;
10450;SDS011;5273;51.290;6.918;2024-03-08T00:59:13;20.33;;;14.33;;
10450;SDS011;5273;51.290;6.918;2024-03-08T01:01:42;22.40;;;12.80;;
10450;SDS011;5273;51.290;6.918;2024-03-08T01:04:09;26.00;;;13.70;;
10450;SDS011;5273;51.290;6.918;2024-03-08T01:06:36;19.40;;;13.87;;
10450;SDS011;5273;51.290;6.918;2024-03-08T01:09:03;24.07;;;14.77;;
10450;SDS011;5273;51.290;6.918;2024-03-08T01:11:32;23.73;;;13.40;;
10450;SDS011;5273;51.290;6.918;2024-03-08T01:13:59;19.63;;;13.53;;
10450;SDS011;5273;51.290;6.918;2024-03-08T01:16:26;18.80;;;13.03;;
10450;SDS011;5273;51.290;6.918;2024-03-08T01:18:55;20.83;;;14.00;;
10450;SDS011;5273;51.290;6.918;2024-03-08T01:21:21;18.87;;;11.17;;
10450;SDS011;5273;51.290;6.918;2024-03-08T01:23:49;22.20;;;13.33;;
10450;SDS011;5273;51.290;6.918;2024-03-08T01:26:16;19.43;;;12.53;;
10450;SDS011;5273;51.290;6.918;2024-03-08T01:28:43;20.03;;;13.37;;
10450;SDS011;5273;51.290;6.918;2024-03-08T01:31:10;19.23;;;12.53;;
10450;SDS011;5273;51.290;6.918;2024-03-08T01:33:38;23.07;;;14.00;;
10450;SDS011;5273;51.290;6.918;2024-03-08T01:36:07;23.20;;;13.47;;
10450;SDS011;5273;51.290;6.918;2024-03-08T01:38:34;25.00;;;13.57;;
10450;SDS011;5273;51.290;6.918;2024-03-08T01:41:01;22.73;;;13.60;;
10450;SDS011;5273;51.290;6.918;2024-03-08T01:43:29;23.10;;;13.77;;
10450;SDS011;5273;51.290;6.918;2024-03-08T01:45:56;20.90;;;13.43;;
10450;SDS011;5273;51.290;6.918;2024-03-08T01:48:24;22.30;;;13.67;;
10450;SDS011;5273;51.290;6.918;2024-03-08T01:50:52;23.13;;;12.77;;
10450;SDS011;5273;51.290;6.918;2024-03-08T01:53:21;25.10;;;14.00;;
10450;SDS011;5273;51.290;6.918;2024-03-08T01:55:49;29.30;;;14.47;;
10450;SDS011;5273;51.290;6.918;2024-03-08T01:58:20;19.10;;;12.83;;
10450;SDS011;5273;51.290;6.918;2024-03-08T02:00:48;20.40;;;12.60;;
10450;SDS011;5273;51.290;6.918;2024-03-08T02:03:16;23.90;;;13.77;;
10450;SDS011;5273;51.290;6.918;2024-03-08T02:05:43;23.73;;;13.93;;
10450;SDS011;5273;51.290;6.918;2024-03-08T02:08:10;25.87;;;14.83;;
10450;SDS011;5273;51.290;6.918;2024-03-08T02:10:41;24.67;;;13.50;;
10450;SDS011;5273;51.290;6.918;2024-03-08T02:13:08;22.83;;;13.47;;
10450;SDS011;5273;51.290;6.918;2024-03-08T02:15:51;27.63;;;14.93;;
10450;SDS011;5273;51.290;6.918;2024-03-08T02:18:18;25.67;;;13.40;;
10450;SDS011;5273;51.290;6.918;2024-03-08T02:20:47;22.53;;;13.60;;
10450;SDS011;5273;51.290;6.918;2024-03-08T02:23:14;23.93;;;13.63;;
10450;SDS011;5273;51.290;6.918;2024-03-08T02:25:41;23.57;;;13.93;;
10450;SDS011;5273;51.290;6.918;2024-03-08T02:28:09;23.20;;;13.70;;
10450;SDS011;5273;51.290;6.918;2024-03-08T02:30:37;23.23;;;13.97;;
10450;SDS011;5273;51.290;6.918;2024-03-08T02:33:04;21.80;;;13.80;;
10450;SDS011;5273;51.290;6.918;2024-03-08T02:35:31;24.67;;;15.10;;
10450;SDS011;5273;51.290;6.918;2024-03-08T02:38:00;21.97;;;14.43;;
10450;SDS011;5273;51.290;6.918;2024-03-08T02:40:27;23.73;;;15.10;;
10450;SDS011;5273;51.290;6.918;2024-03-08T02:42:54;22.47;;;14.27;;
10450;SDS011;5273;51.290;6.918;2024-03-08T02:45:21;23.83;;;13.87;;
10450;SDS011;5273;51.290;6.918;2024-03-08T02:47:48;26.00;;;15.63;;
10450;SDS011;5273;51.290;6.918;2024-03-08T02:50:15;25.50;;;15.17;;
10450;SDS011;5273;51.290;6.918;2024-03-08T02:52:42;23.70;;;14.33;;
10450;SDS011;5273;51.290;6.918;2024-03-08T02:55:13;22.70;;;14.10;;
10450;SDS011;5273;51.290;6.918;2024-03-08T02:57:41;25.87;;;14.40;;
10450;SDS011;5273;51.290;6.918;2024-03-08T03:00:08;24.50;;;14.43;;
10450;SDS011;5273;51.290;6.918;2024-03-08T03:02:36;22.87;;;14.13;;
10450;SDS011;5273;51.290;6.918;2024-03-08T03:05:04;21.57;;;12.90;;
10450;SDS011;5273;51.290;6.918;2024-03-08T03:07:31;22.77;;;13.87;;
10450;SDS011;5273;51.290;6.918;2024-03-08T03:09:59;22.13;;;14.20;;
10450;SDS011;5273;51.290;6.918;2024-03-08T03:12:28;22.90;;;14.37;;
10450;SDS011;5273;51.290;6.918;2024-03-08T03:14:55;22.50;;;14.27;;
10450;SDS011;5273;51.290;6.918;2024-03-08T03:17:22;20.60;;;13.73;;
10450;SDS011;5273;51.290;6.918;2024-03-08T03:19:49;24.43;;;13.70;;
10450;SDS011;5273;51.290;6.918;2024-03-08T03:22:17;25.27;;;14.97;;
10450;SDS011;5273;51.290;6.918;2024-03-08T03:24:44;23.83;;;15.10;;
10450;SDS011;5273;51.290;6.918;2024-03-08T03:27:12;22.13;;;14.00;;
10450;SDS011;5273;51.290;6.918;2024-03-08T03:29:41;21.60;;;13.53;;
10450;SDS011;5273;51.290;6.918;2024-03-08T03:32:10;23.23;;;14.17;;
10450;SDS011;5273;51.290;6.918;2024-03-08T03:34:37;22.20;;;13.50;;
10450;SDS011;5273;51.290;6.918;2024-03-08T03:37:05;25.43;;;13.57;;
10450;SDS011;5273;51.290;6.918;2024-03-08T03:39:33;25.07;;;14.67;;
10450;SDS011;5273;51.290;6.918;2024-03-08T03:42:05;24.50;;;14.23;;
10450;SDS011;5273;51.290;6.918;2024-03-08T03:44:32;24.23;;;14.33;;
10450;SDS011;5273;51.290;6.918;2024-03-08T03:47:01;22.70;;;14.03;;
10450;SDS011;5273;51.290;6.918;2024-03-08T03:49:28;22.67;;;14.47;;
10450;SDS011;5273;51.290;6.918;2024-03-08T03:51:55;24.40;;;14.53;;
10450;SDS011;5273;51.290;6.918;2024-03-08T03:54:22;20.47;;;13.67;;
10450;SDS011;5273;51.290;6.918;2024-03-08T03:56:49;26.03;;;14.60;;
10450;SDS011;5273;51.290;6.918;2024-03-08T03:59:18;23.33;;;14.43;;
10450;SDS011;5273;51.290;6.918;2024-03-08T04:01:45;25.17;;;14.17;;
10450;SDS011;5273;51.290;6.918;2024-03-08T04:04:15;25.23;;;14.57;;
10450;SDS011;5273;51.290;6.918;2024-03-08T04:06:42;25.20;;;14.47;;
10450;SDS011;5273;51.290;6.918;2024-03-08T04:09:10;25.83;;;14.37;;
10450;SDS011;5273;51.290;6.918;2024-03-08T04:11:37;23.40;;;13.97;;
10450;SDS011;5273;51.290;6.918;2024-03-08T04:14:04;22.90;;;14.10;;
10450;SDS011;5273;51.290;6.918;2024-03-08T04:16:31;24.60;;;14.27;;
10450;SDS011;5273;51.290;6.918;2024-03-08T04:18:59;26.73;;;14.70;;
10450;SDS011;5273;51.290;6.918;2024-03-08T04:21:31;23.90;;;13.73;;
10450;SDS011;5273;51.290;6.918;2024-03-08T04:23:57;22.23;;;14.77;;
10450;SDS011;5273;51.290;6.918;2024-03-08T04:26:24;27.97;;;13.90;;
10450;SDS011;5273;51.290;6.918;2024-03-08T04:28:52;25.50;;;14.53;;
10450;SDS011;5273;51.290;6.918;2024-03-08T04:31:19;23.50;;;13.47;;
10450;SDS011;5273;51.290;6.918;2024-03-08T04:33:46;25.13;;;14.63;;
10450;SDS011;5273;51.290;6.918;2024-03-08T04:36:13;25.33;;;15.33;;
10450;SDS011;5273;51.290;6.918;2024-03-08T04:38:42;22.73;;;13.73;;
10450;SDS011;5273;51.290;6.918;2024-03-08T04:41:09;24.27;;;14.43;;
10450;SDS011;5273;51.290;6.918;2024-03-08T04:43:36;24.70;;;14.50;;
10450;SDS011;5273;51.290;6.918;2024-03-08T04:46:04;21.13;;;13.60;;
10450;SDS011;5273;51.290;6.918;2024-03-08T04:48:31;24.73;;;14.23;;
10450;SDS011;5273;51.290;6.918;2024-03-08T04:50:58;22.77;;;13.53;;
10450;SDS011;5273;51.290;6.918;2024-03-08T04:53:26;22.07;;;12.83;;
10450;SDS011;5273;51.290;6.918;2024-03-08T04:55:55;24.90;;;14.23;;
10450;SDS011;5273;51.290;6.918;2024-03-08T04:58:23;24.00;;;13.57;;
10450;SDS011;5273;51.290;6.918;2024-03-08T05:00:50;18.43;;;12.77;;
10450;SDS011;5273;51.290;6.918;2024-03-08T05:03:17;24.43;;;15.80;;
10450;SDS011;5273;51.290;6.918;2024-03-08T05:05:44;23.50;;;15.00;;
10450;SDS011;5273;51.290;6.918;2024-03-08T05:08:11;23.67;;;13.17;;
10450;SDS011;5273;51.290;6.918;2024-03-08T05:10:38;20.17;;;13.90;;
10450;SDS011;5273;51.290;6.918;2024-03-08T05:13:07;22.43;;;13.20;;
10450;SDS011;5273;51.290;6.918;2024-03-08T05:15:34;21.83;;;13.20;;
10450;SDS011;5273;51.290;6.918;2024-03-08T05:18:01;22.03;;;13.40;;
10450;SDS011;5273;51.290;6.918;2024-03-08T05:20:28;20.57;;;13.20;;
10450;SDS011;5273;51.290;6.918;2024-03-08T05:22:56;27.50;;;14.37;;
10450;SDS011;5273;51.290;6.918;2024-03-08T05:25:23;21.77;;;13.70;;
10450;SDS011;5273;51.290;6.918;2024-03-08T05:27:51;22.80;;;13.77;;
10450;SDS011;5273;51.290;6.918;2024-03-08T05:30:19;19.37;;;11.20;;
10450;SDS011;5273;51.290;6.918;2024-03-08T05:32:46;24.13;;;14.07;;
10450;SDS011;5273;51.290;6.918;2024-03-08T05:35:13;19.03;;;11.07;;
10450;SDS011;5273;51.290;6.918;2024-03-08T05:37:42;25.40;;;13.77;;
10450;SDS011;5273;51.290;6.918;2024-03-08T05:40:10;27.30;;;16.50;;
10450;SDS011;5273;51.290;6.918;2024-03-08T05:42:37;24.23;;;13.53;;
10450;SDS011;5273;51.290;6.918;2024-03-08T05:45:04;20.63;;;12.93;;
10450;SDS011;5273;51.290;6.918;2024-03-08T05:47:33;25.77;;;14.17;;
10450;SDS011;5273;51.290;6.918;2024-03-08T05:50:00;21.90;;;14.73;;
10450;SDS011;5273;51.290;6.918;2024-03-08T05:52:27;21.10;;;13.00;;
10450;SDS011;5273;51.290;6.918;2024-03-08T05:54:54;24.27;;;13.57;;
10450;SDS011;5273;51.290;6.918;2024-03-08T05:57:22;23.97;;;12.83;;
10450;SDS011;5273;51.290;6.918;2024-03-08T05:59:50;27.03;;;16.00;;
10450;SDS011;5273;51.290;6.918;2024-03-08T06:02:17;25.97;;;14.40;;
10450;SDS011;5273;51.290;6.918;2024-03-08T06:04:45;24.87;;;13.97;;
10450;SDS011;5273;51.290;6.918;2024-03-08T06:07:13;27.00;;;16.27;;
10450;SDS011;5273;51.290;6.918;2024-03-08T06:09:40;25.93;;;14.03;;
10450;SDS011;5273;51.290;6.918;2024-03-08T06:12:10;25.17;;;15.03;;
10450;SDS011;5273;51.290;6.918;2024-03-08T06:14:37;22.73;;;14.80;;
10450;SDS011;5273;51.290;6.918;2024-03-08T06:17:04;22.30;;;13.27;;
10450;SDS011;5273;51.290;6.918;2024-03-08T06:19:32;22.70;;;14.97;;
10450;SDS011;5273;51.290;6.918;2024-03-08T06:22:02;25.50;;;14.53;;
10450;SDS011;5273;51.290;6.918;2024-03-08T06:24:30;22.40;;;13.17;;
10450;SDS011;5273;51.290;6.918;2024-03-08T06:26:57;25.47;;;15.00;;
10450;SDS011;5273;51.290;6.918;2024-03-08T06:29:24;22.23;;;12.43;;
10450;SDS011;5273;51.290;6.918;2024-03-08T06:31:52;21.47;;;12.50;;
10450;SDS011;5273;51.290;6.918;2024-03-08T06:34:20;22.70;;;13.87;;
10450;SDS011;5273;51.290;6.918;2024-03-08T06:36:47;23.20;;;13.73;;
10450;SDS011;5273;51.290;6.918;2024-03-08T06:39:15;26.63;;;15.43;;
10450;SDS011;5273;51.290;6.918;2024-03-08T06:41:42;21.60;;;13.80;;
10450;SDS011;5273;51.290;6.918;2024-03-08T06:44:09;20.27;;;12.47;;
10450;SDS011;5273;51.290;6.918;2024-03-08T06:46:36;24.40;;;12.80;;
10450;SDS011;5273;51.290;6.918;2024-03-08T06:49:04;19.60;;;12.73;;
10450;SDS011;5273;51.290;6.918;2024-03-08T06:51:32;19.90;;;12.07;;
10450;SDS011;5273;51.290;6.918;2024-03-08T06:53:59;20.67;;;13.23;;
10450;SDS011;5273;51.290;6.918;2024-03-08T06:56:28;19.80;;;11.27;;
10450;SDS011;5273;51.290;6.918;2024-03-08T06:58:54;17.60;;;11.57;;
10450;SDS011;5273;51.290;6.918;2024-03-08T07:01:22;18.93;;;12.37;;
10450;SDS011;5273;51.290;6.918;2024-03-08T07:03:49;20.50;;;13.23;;
10450;SDS011;5273;51.290;6.918;2024-03-08T07:06:17;17.97;;;13.20;;
10450;SDS011;5273;51.290;6.918;2024-03-08T07:08:45;19.20;;;12.93;;
10450;SDS011;5273;51.290;6.918;2024-03-08T07:11:13;22.70;;;13.33;;
10450;SDS011;5273;51.290;6.918;2024-03-08T07:13:45;18.00;;;12.40;;
10450;SDS011;5273;51.290;6.918;2024-03-08T07:16:12;17.83;;;12.20;;
10450;SDS011;5273;51.290;6.918;2024-03-08T07:18:39;20.40;;;13.47;;
10450;SDS011;5273;51.290;6.918;2024-03-08T07:21:08;23.07;;;13.37;;
10450;SDS011;5273;51.290;6.918;2024-03-08T07:23:36;14.03;;;9.17;;
10450;SDS011;5273;51.290;6.918;2024-03-08T07:26:19;17.80;;;11.90;;
10450;SDS011;5273;51.290;6.918;2024-03-08T07:28:48;19.43;;;13.07;;
10450;SDS011;5273;51.290;6.918;2024-03-08T07:31:15;18.87;;;12.27;;
10450;SDS011;5273;51.290;6.918;2024-03-08T07:33:46;18.02;;;12.77;;
10450;SDS011;5273;51.290;6.918;2024-03-08T07:36:15;16.70;;;12.10;;
10450;SDS011;5273;51.290;6.918;2024-03-08T07:38:42;15.70;;;11.95;;
10450;SDS011;5273;51.290;6.918;2024-03-08T07:41:11;18.10;;;12.82;;
10450;SDS011;5273;51.290;6.918;2024-03-08T07:43:38;18.70;;;12.63;;
10450;SDS011;5273;51.290;6.918;2024-03-08T07:46:06;19.88;;;12.30;;
10450;SDS011;5273;51.290;6.918;2024-03-08T07:48:35;16.05;;;12.30;;
10450;SDS011;5273;51.290;6.918;2024-03-08T07:51:03;17.33;;;12.40;;
10450;SDS011;5273;51.290;6.918;2024-03-08T07:53:30;17.13;;;12.40;;
10450;SDS011;5273;51.290;6.918;2024-03-08T07:55:57;20.23;;;12.77;;
10450;SDS011;5273;51.290;6.918;2024-03-08T07:58:25;17.88;;;12.23;;
10450;SDS011;5273;51.290;6.918;2024-03-08T08:00:51;19.98;;;13.05;;
10450;SDS011;5273;51.290;6.918;2024-03-08T08:03:21;17.25;;;12.15;;
10450;SDS011;5273;51.290;6.918;2024-03-08T08:05:48;16.00;;;11.93;;
10450;SDS011;5273;51.290;6.918;2024-03-08T08:08:15;15.00;;;11.98;;
10450;SDS011;5273;51.290;6.918;2024-03-08T08:10:41;15.10;;;11.32;;
10450;SDS011;5273;51.290;6.918;2024-03-08T08:13:08;16.52;;;12.32;;
10450;SDS011;5273;51.290;6.918;2024-03-08T08:15:36;19.23;;;12.55;;
10450;SDS011;5273;51.290;6.918;2024-03-08T08:18:03;14.75;;;11.55;;
10450;SDS011;5273;51.290;6.918;2024-03-08T08:20:32;17.60;;;13.13;;
10450;SDS011;5273;51.290;6.918;2024-03-08T08:22:58;15.75;;;11.65;;
10450;SDS011;5273;51.290;6.918;2024-03-08T08:25:25;14.73;;;11.35;;
10450;SDS011;5273;51.290;6.918;2024-03-08T08:27:52;16.00;;;11.85;;
10450;SDS011;5273;51.290;6.918;2024-03-08T08:30:19;16.58;;;11.90;;
10450;SDS011;5273;51.290;6.918;2024-03-08T08:32:46;17.05;;;12.88;;
10450;SDS011;5273;51.290;6.918;2024-03-08T08:35:13;16.20;;;11.93;;
10450;SDS011;5273;51.290;6.918;2024-03-08T08:37:42;16.10;;;12.30;;
10450;SDS011;5273;51.290;6.918;2024-03-08T08:40:09;15.43;;;11.32;;
10450;SDS011;5273;51.290;6.918;2024-03-08T08:42:39;16.23;;;11.05;;
10450;SDS011;5273;51.290;6.918;2024-03-08T08:45:06;16.85;;;11.88;;
10450;SDS011;5273;51.290;6.918;2024-03-08T08:47:34;18.90;;;11.55;;
10450;SDS011;5273;51.290;6.918;2024-03-08T08:50:01;14.35;;;11.55;;
10450;SDS011;5273;51.290;6.918;2024-03-08T08:52:29;16.83;;;11.50;;
10450;SDS011;5273;51.290;6.918;2024-03-08T08:54:58;16.02;;;10.75;;
10450;SDS011;5273;51.290;6.918;2024-03-08T08:57:25;13.45;;;11.00;;
10450;SDS011;5273;51.290;6.918;2024-03-08T08:59:52;15.20;;;11.15;;
10450;SDS011;5273;51.290;6.918;2024-03-08T09:02:20;14.48;;;11.73;;
10450;SDS011;5273;51.290;6.918;2024-03-08T09:04:47;16.52;;;12.32;;
10450;SDS011;5273;51.290;6.918;2024-03-08T09:07:13;14.73;;;11.07;;
10450;SDS011;5273;51.290;6.918;2024-03-08T09:09:41;14.73;;;11.63;;
10450;SDS011;5273;51.290;6.918;2024-03-08T09:12:10;16.33;;;11.32;;
10450;SDS011;5273;51.290;6.918;2024-03-08T09:14:38;13.52;;;10.23;;
10450;SDS011;5273;51.290;6.918;2024-03-08T09:17:05;15.15;;;11.50;;
10450;SDS011;5273;51.290;6.918;2024-03-08T09:19:33;14.80;;;10.48;;
10450;SDS011;5273;51.290;6.918;2024-03-08T09:22:01;14.68;;;11.63;;
10450;SDS011;5273;51.290;6.918;2024-03-08T09:24:29;12.88;;;10.80;;
10450;SDS011;5273;51.290;6.918;2024-03-08T09:26:56;13.23;;;11.07;;
10450;SDS011;5273;51.290;6.918;2024-03-08T09:29:25;11.90;;;9.73;;
10450;SDS011;5273;51.290;6.918;2024-03-08T09:31:52;13.18;;;10.68;;
10450;SDS011;5273;51.290;6.918;2024-03-08T09:34:19;13.82;;;11.25;;
10450;SDS011;5273;51.290;6.918;2024-03-08T09:36:45;13.30;;;10.55;;
10450;SDS011;5273;51.290;6.918;2024-03-08T09:39:13;13.52;;;10.57;;
10450;SDS011;5273;51.290;6.918;2024-03-08T09:41:42;12.68;;;10.48;;
10450;SDS011;5273;51.290;6.918;2024-03-08T09:44:09;11.60;;;9.75;;
10450;SDS011;5273;51.290;6.918;2024-03-08T09:46:38;14.05;;;10.70;;
10450;SDS011;5273;51.290;6.918;2024-03-08T09:49:05;12.50;;;10.45;;
10450;SDS011;5273;51.290;6.918;2024-03-08T09:51:33;15.30;;;10.27;;
10450;SDS011;5273;51.290;6.918;2024-03-08T09:54:01;13.45;;;10.10;;
10450;SDS011;5273;51.290;6.918;2024-03-08T09:56:29;12.15;;;10.13;;
10450;SDS011;5273;51.290;6.918;2024-03-08T09:58:59;13.45;;;9.55;;
10450;SDS011;5273;51.290;6.918;2024-03-08T10:02:07;11.63;;;9.60;;
10450;SDS011;5273;51.290;6.918;2024-03-08T10:04:39;13.43;;;9.70;;
10450;SDS011;5273;51.290;6.918;2024-03-08T10:07:07;11.57;;;9.38;;
10450;SDS011;5273;51.290;6.918;2024-03-08T10:09:34;11.27;;;9.23;;
10450;SDS011;5273;51.290;6.918;2024-03-08T10:12:00;14.93;;;10.07;;
10450;SDS011;5273;51.290;6.918;2024-03-08T10:14:28;12.70;;;10.27;;
10450;SDS011;5273;51.290;6.918;2024-03-08T10:16:56;12.60;;;9.55;;
10450;SDS011;5273;51.290;6.918;2024-03-08T10:19:26;11.32;;;8.98;;
10450;SDS011;5273;51.290;6.918;2024-03-08T10:21:55;11.80;;;10.13;;
10450;SDS011;5273;51.290;6.918;2024-03-08T10:24:23;10.00;;;8.10;;
10450;SDS011;5273;51.290;6.918;2024-03-08T10:26:51;10.95;;;8.13;;
10450;SDS011;5273;51.290;6.918;2024-03-08T10:29:19;10.77;;;8.38;;
10450;SDS011;5273;51.290;6.918;2024-03-08T10:31:46;12.18;;;8.35;;
10450;SDS011;5273;51.290;6.918;2024-03-08T10:34:15;12.75;;;8.77;;
10450;SDS011;5273;51.290;6.918;2024-03-08T10:36:44;10.63;;;8.27;;
10450;SDS011;5273;51.290;6.918;2024-03-08T10:39:13;11.68;;;8.95;;
10450;SDS011;5273;51.290;6.918;2024-03-08T10:41:49;12.23;;;9.15;;
10450;SDS011;5273;51.290;6.918;2024-03-08T10:44:23;11.57;;;7.30;;
10450;SDS011;5273;51.290;6.918;2024-03-08T10:47:06;10.52;;;7.55;;
10450;SDS011;5273;51.290;6.918;2024-03-08T10:49:44;9.32;;;7.35;;
10450;SDS011;5273;51.290;6.918;2024-03-08T10:52:18;10.32;;;7.70;;
10450;SDS011;5273;51.290;6.918;2024-03-08T10:54:45;9.70;;;7.10;;
10450;SDS011;5273;51.290;6.918;2024-03-08T10:57:14;11.00;;;7.90;;
10450;SDS011;5273;51.290;6.918;2024-03-08T10:59:44;10.98;;;7.32;;
10450;SDS011;5273;51.290;6.918;2024-03-08T11:02:12;11.43;;;7.63;;
10450;SDS011;5273;51.290;6.918;2024-03-08T11:04:43;11.25;;;7.93;;
10450;SDS011;5273;51.290;6.918;2024-03-08T11:07:12;9.57;;;7.43;;
10450;SDS011;5273;51.290;6.918;2024-03-08T11:09:43;12.47;;;7.30;;
10450;SDS011;5273;51.290;6.918;2024-03-08T11:12:21;11.30;;;8.60;;
10450;SDS011;5273;51.290;6.918;2024-03-08T11:14:50;10.25;;;7.68;;
10450;SDS011;5273;51.290;6.918;2024-03-08T11:17:20;13.15;;;7.50;;
10450;SDS011;5273;51.290;6.918;2024-03-08T11:19:47;11.38;;;7.82;;
10450;SDS011;5273;51.290;6.918;2024-03-08T11:22:21;9.57;;;6.90;;
10450;SDS011;5273;51.290;6.918;2024-03-08T11:24:53;11.30;;;8.10;;
10450;SDS011;5273;51.290;6.918;2024-03-08T11:27:28;11.53;;;7.33;;
10450;SDS011;5273;51.290;6.918;2024-03-08T11:29:59;13.13;;;7.37;;
10450;SDS011;5273;51.290;6.918;2024-03-08T11:32:35;13.83;;;8.43;;
10450;SDS011;5273;51.290;6.918;2024-03-08T11:35:05;12.17;;;7.87;;
10450;SDS011;5273;51.290;6.918;2024-03-08T11:37:34;11.03;;;7.97;;
10450;SDS011;5273;51.290;6.918;2024-03-08T11:40:06;10.50;;;7.13;;
10450;SDS011;5273;51.290;6.918;2024-03-08T11:42:39;10.13;;;7.73;;
10450;SDS011;5273;51.290;6.918;2024-03-08T11:45:08;10.40;;;7.72;;
10450;SDS011;5273;51.290;6.918;2024-03-08T11:47:36;12.60;;;7.97;;
10450;SDS011;5273;51.290;6.918;2024-03-08T11:50:05;10.77;;;7.50;;
10450;SDS011;5273;51.290;6.918;2024-03-08T11:52:35;11.03;;;8.27;;
10450;SDS011;5273;51.290;6.918;2024-03-08T11:55:05;9.03;;;6.83;;
10450;SDS011;5273;51.290;6.918;2024-03-08T11:57:33;11.65;;;7.57;;
10450;SDS011;5273;51.290;6.918;2024-03-08T12:00:00;10.57;;;7.28;;
10450;SDS011;5273;51.290;6.918;2024-03-08T12:02:31;11.00;;;7.90;;
10450;SDS011;5273;51.290;6.918;2024-03-08T12:05:01;12.00;;;7.82;;
10450;SDS011;5273;51.290;6.918;2024-03-08T12:07:28;11.50;;;7.85;;
10450;SDS011;5273;51.290;6.918;2024-03-08T12:10:17;9.70;;;6.43;;
10450;SDS011;5273;51.290;6.918;2024-03-08T12:12:47;10.73;;;7.32;;
10450;SDS011;5273;51.290;6.918;2024-03-08T12:15:15;9.68;;;6.72;;
10450;SDS011;5273;51.290;6.918;2024-03-08T12:17:43;10.32;;;6.75;;
10450;SDS011;5273;51.290;6.918;2024-03-08T12:20:15;10.18;;;7.45;;
10450;SDS011;5273;51.290;6.918;2024-03-08T12:22:43;9.63;;;7.20;;
10450;SDS011;5273;51.290;6.918;2024-03-08T12:25:11;11.90;;;7.03;;
10450;SDS011;5273;51.290;6.918;2024-03-08T12:27:39;11.05;;;6.90;;
10450;SDS011;5273;51.290;6.918;2024-03-08T12:30:19;9.32;;;6.72;;
10450;SDS011;5273;51.290;6.918;2024-03-08T12:32:49;9.15;;;6.95;;
10450;SDS011;5273;51.290;6.918;2024-03-08T12:35:19;9.25;;;6.82;;
10450;SDS011;5273;51.290;6.918;2024-03-08T12:37:47;8.85;;;5.82;;
10450;SDS011;5273;51.290;6.918;2024-03-08T12:40:16;8.25;;;7.03;;
10450;SDS011;5273;51.290;6.918;2024-03-08T12:42:45;10.10;;;6.20;;
10450;SDS011;5273;51.290;6.918;2024-03-08T12:45:13;9.03;;;6.37;;
10450;SDS011;5273;51.290;6.918;2024-03-08T12:47:40;9.50;;;7.20;;
10450;SDS011;5273;51.290;6.918;2024-03-08T12:50:08;11.00;;;7.17;;
10450;SDS011;5273;51.290;6.918;2024-03-08T12:52:36;8.70;;;6.68;;
10450;SDS011;5273;51.290;6.918;2024-03-08T12:55:03;10.80;;;7.33;;
10450;SDS011;5273;51.290;6.918;2024-03-08T12:57:32;10.10;;;7.07;;
10450;SDS011;5273;51.290;6.918;2024-03-08T13:00:01;10.43;;;7.13;;
10450;SDS011;5273;51.290;6.918;2024-03-08T13:02:29;10.10;;;6.50;;
10450;SDS011;5273;51.290;6.918;2024-03-08T13:04:57;8.93;;;6.68;;
10450;SDS011;5273;51.290;6.918;2024-03-08T13:07:24;8.90;;;6.00;;
10450;SDS011;5273;51.290;6.918;2024-03-08T13:09:52;8.02;;;5.95;;
10450;SDS011;5273;51.290;6.918;2024-03-08T13:12:19;8.87;;;6.67;;
10450;SDS011;5273;51.290;6.918;2024-03-08T13:14:46;8.13;;;6.20;;
10450;SDS011;5273;51.290;6.918;2024-03-08T13:17:14;9.52;;;6.20;;
10450;SDS011;5273;51.290;6.918;2024-03-08T13:19:43;9.55;;;6.40;;
10450;SDS011;5273;51.290;6.918;2024-03-08T13:22:10;9.07;;;6.72;;
10450;SDS011;5273;51.290;6.918;2024-03-08T13:24:38;8.95;;;6.28;;
10450;SDS011;5273;51.290;6.918;2024-03-08T13:27:06;8.63;;;5.82;;
10450;SDS011;5273;51.290;6.918;2024-03-08T13:29:44;9.82;;;6.88;;
10450;SDS011;5273;51.290;6.918;2024-03-08T13:32:11;9.50;;;6.65;;
10450;SDS011;5273;51.290;6.918;2024-03-08T13:34:41;9.03;;;6.63;;
10450;SDS011;5273;51.290;6.918;2024-03-08T13:37:09;7.90;;;5.70;;
10450;SDS011;5273;51.290;6.918;2024-03-08T13:39:36;10.15;;;6.65;;
10450;SDS011;5273;51.290;6.918;2024-03-08T13:42:08;8.63;;;6.07;;
10450;SDS011;5273;51.290;6.918;2024-03-08T13:44:37;8.70;;;6.38;;
10450;SDS011;5273;51.290;6.918;2024-03-08T13:47:05;9.68;;;6.75;;
10450;SDS011;5273;51.290;6.918;2024-03-08T13:49:32;7.63;;;6.55;;
10450;SDS011;5273;51.290;6.918;2024-03-08T13:52:01;7.97;;;6.07;;
10450;SDS011;5273;51.290;6.918;2024-03-08T13:54:28;8.27;;;6.78;;
10450;SDS011;5273;51.290;6.918;2024-03-08T13:56:56;11.07;;;6.70;;
10450;SDS011;5273;51.290;6.918;2024-03-08T13:59:23;9.13;;;6.10;;
10450;SDS011;5273;51.290;6.918;2024-03-08T14:01:54;9.77;;;6.82;;
10450;SDS011;5273;51.290;6.918;2024-03-08T14:04:21;8.63;;;5.10;;
10450;SDS011;5273;51.290;6.918;2024-03-08T14:06:49;7.75;;;5.85;;
10450;SDS011;5273;51.290;6.918;2024-03-08T14:09:18;9.48;;;5.78;;
10450;SDS011;5273;51.290;6.918;2024-03-08T14:11:45;8.63;;;6.07;;
10450;SDS011;5273;51.290;6.918;2024-03-08T14:14:11;11.67;;;6.97;;
10450;SDS011;5273;51.290;6.918;2024-03-08T14:16:40;9.30;;;6.25;;
10450;SDS011;5273;51.290;6.918;2024-03-08T14:19:08;10.83;;;6.87;;
10450;SDS011;5273;51.290;6.918;2024-03-08T14:21:35;8.48;;;6.07;;
10450;SDS011;5273;51.290;6.918;2024-03-08T14:24:04;8.48;;;6.25;;
10450;SDS011;5273;51.290;6.918;2024-03-08T14:26:33;9.98;;;6.95;;
10450;SDS011;5273;51.290;6.918;2024-03-08T14:29:01;8.40;;;5.83;;
10450;SDS011;5273;51.290;6.918;2024-03-08T14:31:30;10.10;;;7.13;;
10450;SDS011;5273;51.290;6.918;2024-03-08T14:33:57;10.10;;;6.53;;
10450;SDS011;5273;51.290;6.918;2024-03-08T14:36:24;11.43;;;7.10;;
10450;SDS011;5273;51.290;6.918;2024-03-08T14:38:51;13.17;;;8.03;;
10450;SDS011;5273;51.290;6.918;2024-03-08T14:41:18;10.20;;;7.27;;
10450;SDS011;5273;51.290;6.918;2024-03-08T14:43:48;11.93;;;7.55;;
10450;SDS011;5273;51.290;6.918;2024-03-08T14:46:17;9.13;;;6.73;;